sensor_id;sensor_type;location;lat;lon;timestamp;P1;durP1;ratioP1;P2;durP2;ratioP2
4595;SDS011;2310;49.978;8.742;2023-07-13T00:03:42;4.20;;;2.10;;
4595;SDS011;2310;49.978;8.742;2023-07-13T00:07:44;4.43;;;2.10;;
4595;SDS011;2310;49.978;8.742;2023-07-13T00:11:50;4.90;;;2.00;;
4595;SDS011;2310;49.978;8.742;2023-07-13T00:15:55;3.60;;;1.87;;
4595;SDS011;2310;49.978;8.742;2023-07-13T00:19:58;4.10;;;2.17;;
4595;SDS011;2310;49.978;8.742;2023-07-13T00:23:59;4.27;;;2.30;;
4595;SDS011;2310;49.978;8.742;2023-07-13T00:28:01;7.97;;;2.70;;
4595;SDS011;2310;49.978;8.742;2023-07-13T00:32:03;4.47;;;2.50;;
4595;SDS011;2310;49.978;8.742;2023-07-13T00:36:05;5.13;;;2.60;;
4595;SDS011;2310;49.978;8.742;2023-07-13T00:40:07;3.70;;;2.20;;
4595;SDS011;2310;49.978;8.742;2023-07-13T00:44:13;4.27;;;2.30;;
4595;SDS011;2310;49.978;8.742;2023-07-13T00:48:21;4.23;;;2.40;;
4595;SDS011;2310;49.978;8.742;2023-07-13T00:52:24;4.83;;;2.20;;
4595;SDS011;2310;49.978;8.742;2023-07-13T00:56:26;4.33;;;1.87;;
4595;SDS011;2310;49.978;8.742;2023-07-13T01:00:29;5.97;;;2.63;;
4595;SDS011;2310;49.978;8.742;2023-07-13T01:04:30;5.93;;;2.47;;
4595;SDS011;2310;49.978;8.742;2023-07-13T01:08:32;4.47;;;2.13;;
4595;SDS011;2310;49.978;8.742;2023-07-13T01:12:34;4.30;;;1.90;;
4595;SDS011;2310;49.978;8.742;2023-07-13T01:16:35;4.40;;;2.20;;
4595;SDS011;2310;49.978;8.742;2023-07-13T01:20:38;7.50;;;2.30;;
4595;SDS011;2310;49.978;8.742;2023-07-13T01:24:41;5.07;;;2.03;;
4595;SDS011;2310;49.978;8.742;2023-07-13T01:28:45;4.73;;;2.30;;
4595;SDS011;2310;49.978;8.742;2023-07-13T01:32:46;5.80;;;2.60;;
4595;SDS011;2310;49.978;8.742;2023-07-13T01:36:47;5.83;;;2.08;;
4595;SDS011;2310;49.978;8.742;2023-07-13T01:40:50;4.60;;;2.33;;
4595;SDS011;2310;49.978;8.742;2023-07-13T01:44:53;4.30;;;1.97;;
4595;SDS011;2310;49.978;8.742;2023-07-13T01:48:54;3.80;;;2.10;;
4595;SDS011;2310;49.978;8.742;2023-07-13T01:52:55;3.83;;;1.80;;
4595;SDS011;2310;49.978;8.742;2023-07-13T01:56:57;5.47;;;2.00;;
4595;SDS011;2310;49.978;8.742;2023-07-13T02:00:58;5.63;;;2.20;;
4595;SDS011;2310;49.978;8.742;2023-07-13T02:05:00;3.80;;;2.03;;
4595;SDS011;2310;49.978;8.742;2023-07-13T02:09:01;4.63;;;2.87;;
4595;SDS011;2310;49.978;8.742;2023-07-13T02:13:04;4.60;;;2.17;;
4595;SDS011;2310;49.978;8.742;2023-07-13T02:17:06;3.20;;;1.40;;
4595;SDS011;2310;49.978;8.742;2023-07-13T02:21:08;5.93;;;1.60;;
4595;SDS011;2310;49.978;8.742;2023-07-13T02:25:09;3.17;;;1.70;;
4595;SDS011;2310;49.978;8.742;2023-07-13T02:29:10;4.47;;;1.77;;
4595;SDS011;2310;49.978;8.742;2023-07-13T02:33:12;5.27;;;2.10;;
4595;SDS011;2310;49.978;8.742;2023-07-13T02:37:13;3.87;;;1.87;;
4595;SDS011;2310;49.978;8.742;2023-07-13T02:41:14;4.77;;;2.10;;
4595;SDS011;2310;49.978;8.742;2023-07-13T02:45:16;7.07;;;2.40;;
4595;SDS011;2310;49.978;8.742;2023-07-13T02:49:17;3.63;;;2.30;;
4595;SDS011;2310;49.978;8.742;2023-07-13T02:53:19;5.40;;;2.53;;
4595;SDS011;2310;49.978;8.742;2023-07-13T02:57:20;5.77;;;2.10;;
4595;SDS011;2310;49.978;8.742;2023-07-13T03:01:22;5.10;;;2.60;;
4595;SDS011;2310;49.978;8.742;2023-07-13T03:05:24;4.03;;;1.80;;
4595;SDS011;2310;49.978;8.742;2023-07-13T03:09:25;5.97;;;2.70;;
4595;SDS011;2310;49.978;8.742;2023-07-13T03:13:27;5.17;;;2.97;;
4595;SDS011;2310;49.978;8.742;2023-07-13T03:17:28;5.53;;;2.67;;
4595;SDS011;2310;49.978;8.742;2023-07-13T03:21:29;3.73;;;2.53;;
4595;SDS011;2310;49.978;8.742;2023-07-13T03:25:31;7.27;;;3.10;;
4595;SDS011;2310;49.978;8.742;2023-07-13T03:29:32;4.60;;;2.60;;
4595;SDS011;2310;49.978;8.742;2023-07-13T03:33:34;4.03;;;2.40;;
4595;SDS011;2310;49.978;8.742;2023-07-13T03:37:36;6.30;;;2.30;;
4595;SDS011;2310;49.978;8.742;2023-07-13T03:41:39;5.60;;;2.73;;
4595;SDS011;2310;49.978;8.742;2023-07-13T03:45:40;5.07;;;2.40;;
4595;SDS011;2310;49.978;8.742;2023-07-13T03:49:42;5.13;;;2.83;;
4595;SDS011;2310;49.978;8.742;2023-07-13T03:53:44;7.53;;;3.00;;
4595;SDS011;2310;49.978;8.742;2023-07-13T03:57:46;5.13;;;2.37;;
4595;SDS011;2310;49.978;8.742;2023-07-13T04:01:49;6.30;;;2.90;;
4595;SDS011;2310;49.978;8.742;2023-07-13T04:05:50;4.57;;;2.50;;
4595;SDS011;2310;49.978;8.742;2023-07-13T04:09:51;5.30;;;2.97;;
4595;SDS011;2310;49.978;8.742;2023-07-13T04:13:53;4.70;;;2.30;;
4595;SDS011;2310;49.978;8.742;2023-07-13T04:17:54;3.40;;;2.30;;
4595;SDS011;2310;49.978;8.742;2023-07-13T04:21:56;7.37;;;2.80;;
4595;SDS011;2310;49.978;8.742;2023-07-13T04:25:57;4.27;;;2.70;;
4595;SDS011;2310;49.978;8.742;2023-07-13T04:29:58;5.30;;;2.60;;
4595;SDS011;2310;49.978;8.742;2023-07-13T04:34:00;6.70;;;3.63;;
4595;SDS011;2310;49.978;8.742;2023-07-13T04:38:01;4.50;;;2.63;;
4595;SDS011;2310;49.978;8.742;2023-07-13T04:42:03;6.20;;;2.60;;
4595;SDS011;2310;49.978;8.742;2023-07-13T04:46:06;6.70;;;2.93;;
4595;SDS011;2310;49.978;8.742;2023-07-13T04:50:12;4.60;;;2.50;;
4595;SDS011;2310;49.978;8.742;2023-07-13T04:54:16;5.17;;;3.07;;
4595;SDS011;2310;49.978;8.742;2023-07-13T04:58:18;6.03;;;2.50;;
4595;SDS011;2310;49.978;8.742;2023-07-13T05:02:20;5.20;;;2.53;;
4595;SDS011;2310;49.978;8.742;2023-07-13T05:06:22;5.73;;;2.80;;
4595;SDS011;2310;49.978;8.742;2023-07-13T05:10:24;4.20;;;2.50;;
4595;SDS011;2310;49.978;8.742;2023-07-13T05:14:26;4.10;;;2.53;;
4595;SDS011;2310;49.978;8.742;2023-07-13T05:18:27;4.77;;;2.73;;
4595;SDS011;2310;49.978;8.742;2023-07-13T05:22:30;4.57;;;2.87;;
4595;SDS011;2310;49.978;8.742;2023-07-13T05:26:31;7.00;;;2.50;;
4595;SDS011;2310;49.978;8.742;2023-07-13T05:30:33;6.17;;;2.30;;
4595;SDS011;2310;49.978;8.742;2023-07-13T05:34:34;4.90;;;2.70;;
4595;SDS011;2310;49.978;8.742;2023-07-13T05:38:36;4.53;;;2.03;;
4595;SDS011;2310;49.978;8.742;2023-07-13T05:42:37;5.30;;;2.20;;
4595;SDS011;2310;49.978;8.742;2023-07-13T05:46:39;7.50;;;2.40;;
4595;SDS011;2310;49.978;8.742;2023-07-13T05:50:40;4.57;;;2.27;;
4595;SDS011;2310;49.978;8.742;2023-07-13T05:54:42;5.63;;;2.00;;
4595;SDS011;2310;49.978;8.742;2023-07-13T05:58:43;4.47;;;2.40;;
4595;SDS011;2310;49.978;8.742;2023-07-13T06:02:45;6.30;;;2.20;;
4595;SDS011;2310;49.978;8.742;2023-07-13T06:06:47;6.27;;;2.27;;
4595;SDS011;2310;49.978;8.742;2023-07-13T06:10:48;4.70;;;2.20;;
4595;SDS011;2310;49.978;8.742;2023-07-13T06:14:50;3.63;;;1.90;;
4595;SDS011;2310;49.978;8.742;2023-07-13T06:18:51;4.12;;;2.02;;
4595;SDS011;2310;49.978;8.742;2023-07-13T06:22:53;5.20;;;1.83;;
4595;SDS011;2310;49.978;8.742;2023-07-13T06:26:54;4.00;;;1.60;;
4595;SDS011;2310;49.978;8.742;2023-07-13T06:30:56;3.80;;;2.00;;
4595;SDS011;2310;49.978;8.742;2023-07-13T06:34:57;4.00;;;1.57;;
4595;SDS011;2310;49.978;8.742;2023-07-13T06:38:59;5.13;;;2.50;;
4595;SDS011;2310;49.978;8.742;2023-07-13T06:43:03;3.70;;;2.03;;
4595;SDS011;2310;49.978;8.742;2023-07-13T06:47:04;5.10;;;2.37;;
4595;SDS011;2310;49.978;8.742;2023-07-13T06:51:06;9.33;;;1.80;;
4595;SDS011;2310;49.978;8.742;2023-07-13T06:55:08;4.20;;;1.67;;
4595;SDS011;2310;49.978;8.742;2023-07-13T06:59:09;4.40;;;1.53;;
4595;SDS011;2310;49.978;8.742;2023-07-13T07:03:11;4.17;;;1.67;;
4595;SDS011;2310;49.978;8.742;2023-07-13T07:07:13;4.30;;;1.77;;
4595;SDS011;2310;49.978;8.742;2023-07-13T07:11:16;4.40;;;1.83;;
4595;SDS011;2310;49.978;8.742;2023-07-13T07:15:19;3.70;;;1.90;;
4595;SDS011;2310;49.978;8.742;2023-07-13T07:19:21;4.57;;;1.80;;
4595;SDS011;2310;49.978;8.742;2023-07-13T07:23:22;3.37;;;1.60;;
4595;SDS011;2310;49.978;8.742;2023-07-13T07:27:24;4.80;;;1.47;;
4595;SDS011;2310;49.978;8.742;2023-07-13T07:31:27;5.10;;;2.17;;
4595;SDS011;2310;49.978;8.742;2023-07-13T07:35:31;4.20;;;1.50;;
4595;SDS011;2310;49.978;8.742;2023-07-13T07:39:34;6.10;;;2.00;;
4595;SDS011;2310;49.978;8.742;2023-07-13T07:43:35;3.33;;;1.43;;
4595;SDS011;2310;49.978;8.742;2023-07-13T07:47:37;6.40;;;1.43;;
4595;SDS011;2310;49.978;8.742;2023-07-13T07:51:39;5.23;;;1.80;;
4595;SDS011;2310;49.978;8.742;2023-07-13T07:55:41;5.30;;;1.87;;
4595;SDS011;2310;49.978;8.742;2023-07-13T07:59:44;4.37;;;1.50;;
4595;SDS011;2310;49.978;8.742;2023-07-13T08:03:47;4.80;;;1.80;;
4595;SDS011;2310;49.978;8.742;2023-07-13T08:07:51;4.77;;;1.43;;
4595;SDS011;2310;49.978;8.742;2023-07-13T08:11:52;5.93;;;2.13;;
4595;SDS011;2310;49.978;8.742;2023-07-13T08:15:57;4.10;;;1.97;;
4595;SDS011;2310;49.978;8.742;2023-07-13T08:19:59;7.47;;;2.50;;
4595;SDS011;2310;49.978;8.742;2023-07-13T08:24:01;3.70;;;1.77;;
4595;SDS011;2310;49.978;8.742;2023-07-13T08:28:03;4.27;;;1.40;;
4595;SDS011;2310;49.978;8.742;2023-07-13T08:32:05;3.27;;;1.30;;
4595;SDS011;2310;49.978;8.742;2023-07-13T08:36:09;7.93;;;1.90;;
4595;SDS011;2310;49.978;8.742;2023-07-13T08:40:11;3.90;;;1.50;;
4595;SDS011;2310;49.978;8.742;2023-07-13T08:44:22;7.50;;;1.60;;
4595;SDS011;2310;49.978;8.742;2023-07-13T08:48:28;5.10;;;1.80;;
4595;SDS011;2310;49.978;8.742;2023-07-13T08:52:39;5.60;;;2.03;;
4595;SDS011;2310;49.978;8.742;2023-07-13T08:56:43;3.97;;;1.90;;
4595;SDS011;2310;49.978;8.742;2023-07-13T09:01:51;4.93;;;1.90;;
4595;SDS011;2310;49.978;8.742;2023-07-13T09:05:09;5.77;;;1.87;;
4595;SDS011;2310;49.978;8.742;2023-07-13T09:13:37;4.67;;;1.50;;
4595;SDS011;2310;49.978;8.742;2023-07-13T09:17:41;5.40;;;2.17;;
4595;SDS011;2310;49.978;8.742;2023-07-13T09:21:45;3.73;;;1.90;;
4595;SDS011;2310;49.978;8.742;2023-07-13T09:25:47;3.40;;;1.30;;
4595;SDS011;2310;49.978;8.742;2023-07-13T09:30:02;4.60;;;1.43;;
4595;SDS011;2310;49.978;8.742;2023-07-13T09:34:08;4.30;;;1.33;;
4595;SDS011;2310;49.978;8.742;2023-07-13T09:38:15;5.63;;;1.40;;
4595;SDS011;2310;49.978;8.742;2023-07-13T09:42:19;4.50;;;1.40;;
4595;SDS011;2310;49.978;8.742;2023-07-13T09:46:22;4.40;;;1.43;;
4595;SDS011;2310;49.978;8.742;2023-07-13T09:50:24;3.00;;;1.47;;
4595;SDS011;2310;49.978;8.742;2023-07-13T09:54:26;3.57;;;1.30;;
4595;SDS011;2310;49.978;8.742;2023-07-13T09:58:29;5.00;;;2.17;;
4595;SDS011;2310;49.978;8.742;2023-07-13T10:02:33;3.47;;;1.30;;
4595;SDS011;2310;49.978;8.742;2023-07-13T10:06:36;5.83;;;1.43;;
4595;SDS011;2310;49.978;8.742;2023-07-13T10:10:40;4.27;;;2.00;;
4595;SDS011;2310;49.978;8.742;2023-07-13T10:14:42;5.63;;;1.77;;
4595;SDS011;2310;49.978;8.742;2023-07-13T10:18:48;4.40;;;1.40;;
4595;SDS011;2310;49.978;8.742;2023-07-13T10:22:59;3.93;;;1.50;;
4595;SDS011;2310;49.978;8.742;2023-07-13T10:27:15;3.80;;;1.40;;
4595;SDS011;2310;49.978;8.742;2023-07-13T10:31:20;5.60;;;2.90;;
4595;SDS011;2310;49.978;8.742;2023-07-13T10:35:22;4.43;;;2.07;;
4595;SDS011;2310;49.978;8.742;2023-07-13T10:39:26;7.27;;;2.57;;
4595;SDS011;2310;49.978;8.742;2023-07-13T10:43:45;5.97;;;2.27;;
4595;SDS011;2310;49.978;8.742;2023-07-13T10:47:52;4.30;;;2.20;;
4595;SDS011;2310;49.978;8.742;2023-07-13T10:51:56;3.70;;;1.60;;
4595;SDS011;2310;49.978;8.742;2023-07-13T10:56:05;7.00;;;2.90;;
4595;SDS011;2310;49.978;8.742;2023-07-13T11:00:30;4.40;;;2.03;;
4595;SDS011;2310;49.978;8.742;2023-07-13T11:04:47;10.10;;;3.50;;
4595;SDS011;2310;49.978;8.742;2023-07-13T11:08:54;3.70;;;1.60;;
4595;SDS011;2310;49.978;8.742;2023-07-13T11:12:57;4.60;;;2.33;;
4595;SDS011;2310;49.978;8.742;2023-07-13T11:16:58;4.00;;;1.53;;
4595;SDS011;2310;49.978;8.742;2023-07-13T11:21:18;3.93;;;1.97;;
4595;SDS011;2310;49.978;8.742;2023-07-13T11:25:29;3.73;;;1.77;;
4595;SDS011;2310;49.978;8.742;2023-07-13T11:29:36;3.40;;;2.03;;
4595;SDS011;2310;49.978;8.742;2023-07-13T11:37:46;3.73;;;1.77;;
4595;SDS011;2310;49.978;8.742;2023-07-13T11:41:52;3.30;;;1.60;;
4595;SDS011;2310;49.978;8.742;2023-07-13T11:45:59;3.20;;;1.63;;
4595;SDS011;2310;49.978;8.742;2023-07-13T11:50:02;3.80;;;2.00;;
4595;SDS011;2310;49.978;8.742;2023-07-13T11:54:15;3.43;;;1.43;;
4595;SDS011;2310;49.978;8.742;2023-07-13T11:58:24;3.40;;;1.60;;
4595;SDS011;2310;49.978;8.742;2023-07-13T12:02:32;3.33;;;1.47;;
4595;SDS011;2310;49.978;8.742;2023-07-13T12:06:36;3.30;;;1.40;;
4595;SDS011;2310;49.978;8.742;2023-07-13T12:10:39;7.27;;;1.83;;
4595;SDS011;2310;49.978;8.742;2023-07-13T12:14:40;3.60;;;1.73;;
4595;SDS011;2310;49.978;8.742;2023-07-13T12:18:42;5.53;;;1.63;;
4595;SDS011;2310;49.978;8.742;2023-07-13T12:22:49;3.70;;;1.40;;
4595;SDS011;2310;49.978;8.742;2023-07-13T12:27:04;3.90;;;1.43;;
4595;SDS011;2310;49.978;8.742;2023-07-13T12:31:07;4.50;;;1.50;;
4595;SDS011;2310;49.978;8.742;2023-07-13T12:35:15;4.60;;;1.40;;
4595;SDS011;2310;49.978;8.742;2023-07-13T12:43:28;3.37;;;1.73;;
4595;SDS011;2310;49.978;8.742;2023-07-13T12:47:39;4.40;;;1.57;;
4595;SDS011;2310;49.978;8.742;2023-07-13T12:51:43;4.30;;;1.90;;
4595;SDS011;2310;49.978;8.742;2023-07-13T12:55:49;3.50;;;1.80;;
4595;SDS011;2310;49.978;8.742;2023-07-13T12:59:55;4.37;;;2.00;;
4595;SDS011;2310;49.978;8.742;2023-07-13T13:04:00;4.30;;;2.13;;
4595;SDS011;2310;49.978;8.742;2023-07-13T13:08:02;5.00;;;2.03;;
4595;SDS011;2310;49.978;8.742;2023-07-13T13:12:04;4.60;;;1.97;;
4595;SDS011;2310;49.978;8.742;2023-07-13T13:20:21;6.97;;;5.93;;
4595;SDS011;2310;49.978;8.742;2023-07-13T13:24:25;12.97;;;9.00;;
4595;SDS011;2310;49.978;8.742;2023-07-13T13:28:28;5.03;;;4.27;;
4595;SDS011;2310;49.978;8.742;2023-07-13T13:32:30;7.50;;;5.80;;
4595;SDS011;2310;49.978;8.742;2023-07-13T13:36:31;10.43;;;7.83;;
4595;SDS011;2310;49.978;8.742;2023-07-13T13:40:32;10.63;;;7.30;;
4595;SDS011;2310;49.978;8.742;2023-07-13T13:44:34;4.40;;;3.17;;
4595;SDS011;2310;49.978;8.742;2023-07-13T13:48:36;4.70;;;1.83;;
4595;SDS011;2310;49.978;8.742;2023-07-13T13:52:39;4.43;;;2.07;;
4595;SDS011;2310;49.978;8.742;2023-07-13T13:56:42;4.37;;;1.33;;
4595;SDS011;2310;49.978;8.742;2023-07-13T14:00:45;4.50;;;1.47;;
4595;SDS011;2310;49.978;8.742;2023-07-13T14:04:47;3.23;;;1.87;;
4595;SDS011;2310;49.978;8.742;2023-07-13T14:08:49;5.73;;;1.80;;
4595;SDS011;2310;49.978;8.742;2023-07-13T14:12:51;3.50;;;1.57;;
4595;SDS011;2310;49.978;8.742;2023-07-13T14:16:54;4.20;;;1.73;;
4595;SDS011;2310;49.978;8.742;2023-07-13T14:20:57;4.57;;;2.23;;
4595;SDS011;2310;49.978;8.742;2023-07-13T14:24:58;5.53;;;2.10;;
4595;SDS011;2310;49.978;8.742;2023-07-13T14:29:00;4.63;;;1.70;;
4595;SDS011;2310;49.978;8.742;2023-07-13T14:33:04;3.20;;;1.30;;
4595;SDS011;2310;49.978;8.742;2023-07-13T14:37:11;3.50;;;1.57;;
4595;SDS011;2310;49.978;8.742;2023-07-13T14:41:26;3.63;;;1.40;;
4595;SDS011;2310;49.978;8.742;2023-07-13T14:45:17;3.40;;;1.67;;
4595;SDS011;2310;49.978;8.742;2023-07-13T14:49:28;5.40;;;1.97;;
4595;SDS011;2310;49.978;8.742;2023-07-13T14:53:30;4.77;;;1.57;;
4595;SDS011;2310;49.978;8.742;2023-07-13T14:57:32;3.60;;;1.60;;
4595;SDS011;2310;49.978;8.742;2023-07-13T15:01:34;3.87;;;1.60;;
4595;SDS011;2310;49.978;8.742;2023-07-13T15:05:36;3.33;;;1.70;;
4595;SDS011;2310;49.978;8.742;2023-07-13T15:09:37;4.57;;;1.53;;
4595;SDS011;2310;49.978;8.742;2023-07-13T15:13:39;3.67;;;1.23;;
4595;SDS011;2310;49.978;8.742;2023-07-13T15:17:42;3.30;;;1.40;;
4595;SDS011;2310;49.978;8.742;2023-07-13T15:21:46;3.70;;;2.07;;
4595;SDS011;2310;49.978;8.742;2023-07-13T15:25:49;4.13;;;1.90;;
4595;SDS011;2310;49.978;8.742;2023-07-13T15:29:50;5.87;;;2.07;;
4595;SDS011;2310;49.978;8.742;2023-07-13T15:33:53;4.70;;;1.73;;
4595;SDS011;2310;49.978;8.742;2023-07-13T15:37:56;3.80;;;1.73;;
4595;SDS011;2310;49.978;8.742;2023-07-13T15:41:58;3.33;;;1.50;;
4595;SDS011;2310;49.978;8.742;2023-07-13T15:45:59;3.30;;;1.40;;
4595;SDS011;2310;49.978;8.742;2023-07-13T15:50:01;5.53;;;1.60;;
4595;SDS011;2310;49.978;8.742;2023-07-13T15:54:02;4.47;;;1.70;;
4595;SDS011;2310;49.978;8.742;2023-07-13T15:58:09;5.47;;;1.30;;
4595;SDS011;2310;49.978;8.742;2023-07-13T16:02:12;4.00;;;1.27;;
4595;SDS011;2310;49.978;8.742;2023-07-13T16:06:19;3.10;;;1.40;;
4595;SDS011;2310;49.978;8.742;2023-07-13T16:10:30;3.20;;;1.30;;
4595;SDS011;2310;49.978;8.742;2023-07-13T16:14:35;3.57;;;1.70;;
4595;SDS011;2310;49.978;8.742;2023-07-13T16:18:37;3.20;;;1.63;;
4595;SDS011;2310;49.978;8.742;2023-07-13T16:22:39;3.50;;;1.60;;
4595;SDS011;2310;49.978;8.742;2023-07-13T16:26:45;4.83;;;1.73;;
4595;SDS011;2310;49.978;8.742;2023-07-13T16:30:52;3.10;;;1.30;;
4595;SDS011;2310;49.978;8.742;2023-07-13T16:34:55;3.60;;;1.87;;
4595;SDS011;2310;49.978;8.742;2023-07-13T16:38:56;3.23;;;1.53;;
4595;SDS011;2310;49.978;8.742;2023-07-13T16:42:58;3.53;;;1.40;;
4595;SDS011;2310;49.978;8.742;2023-07-13T16:47:01;3.10;;;1.53;;
4595;SDS011;2310;49.978;8.742;2023-07-13T16:51:02;4.47;;;1.60;;
4595;SDS011;2310;49.978;8.742;2023-07-13T16:55:08;3.10;;;1.60;;
4595;SDS011;2310;49.978;8.742;2023-07-13T16:59:13;3.70;;;1.50;;
4595;SDS011;2310;49.978;8.742;2023-07-13T17:03:17;3.90;;;1.70;;
4595;SDS011;2310;49.978;8.742;2023-07-13T17:07:19;3.90;;;1.57;;
4595;SDS011;2310;49.978;8.742;2023-07-13T17:11:22;4.17;;;1.27;;
4595;SDS011;2310;49.978;8.742;2023-07-13T17:15:26;4.17;;;1.50;;
4595;SDS011;2310;49.978;8.742;2023-07-13T17:19:29;3.50;;;1.70;;
4595;SDS011;2310;49.978;8.742;2023-07-13T17:23:31;6.43;;;2.40;;
4595;SDS011;2310;49.978;8.742;2023-07-13T17:27:36;4.07;;;1.77;;
4595;SDS011;2310;49.978;8.742;2023-07-13T17:31:38;5.50;;;2.20;;
4595;SDS011;2310;49.978;8.742;2023-07-13T17:35:40;4.40;;;1.70;;
4595;SDS011;2310;49.978;8.742;2023-07-13T17:39:42;3.97;;;1.67;;
4595;SDS011;2310;49.978;8.742;2023-07-13T17:43:44;4.00;;;1.60;;
4595;SDS011;2310;49.978;8.742;2023-07-13T17:47:48;4.27;;;2.00;;
4595;SDS011;2310;49.978;8.742;2023-07-13T17:51:50;5.93;;;2.00;;
4595;SDS011;2310;49.978;8.742;2023-07-13T17:55:51;3.23;;;1.40;;
4595;SDS011;2310;49.978;8.742;2023-07-13T17:59:53;3.97;;;1.40;;
4595;SDS011;2310;49.978;8.742;2023-07-13T18:03:55;3.13;;;1.60;;
4595;SDS011;2310;49.978;8.742;2023-07-13T18:07:58;4.93;;;1.60;;
4595;SDS011;2310;49.978;8.742;2023-07-13T18:12:00;4.80;;;2.17;;
4595;SDS011;2310;49.978;8.742;2023-07-13T18:16:02;3.30;;;1.70;;
4595;SDS011;2310;49.978;8.742;2023-07-13T18:20:05;3.63;;;1.67;;
4595;SDS011;2310;49.978;8.742;2023-07-13T18:24:09;3.90;;;1.60;;
4595;SDS011;2310;49.978;8.742;2023-07-13T18:28:13;3.83;;;1.47;;
4595;SDS011;2310;49.978;8.742;2023-07-13T18:32:16;2.90;;;1.30;;
4595;SDS011;2310;49.978;8.742;2023-07-13T18:36:21;3.20;;;1.73;;
4595;SDS011;2310;49.978;8.742;2023-07-13T18:40:23;4.70;;;1.70;;
4595;SDS011;2310;49.978;8.742;2023-07-13T18:44:25;3.40;;;1.37;;
4595;SDS011;2310;49.978;8.742;2023-07-13T18:48:28;3.80;;;1.80;;
4595;SDS011;2310;49.978;8.742;2023-07-13T18:52:33;6.60;;;1.87;;
4595;SDS011;2310;49.978;8.742;2023-07-13T18:56:34;5.00;;;2.20;;
4595;SDS011;2310;49.978;8.742;2023-07-13T19:00:37;5.57;;;2.20;;
4595;SDS011;2310;49.978;8.742;2023-07-13T19:04:40;3.80;;;1.70;;
4595;SDS011;2310;49.978;8.742;2023-07-13T19:08:42;5.17;;;2.23;;
4595;SDS011;2310;49.978;8.742;2023-07-13T19:12:44;4.27;;;1.90;;
4595;SDS011;2310;49.978;8.742;2023-07-13T19:16:48;3.63;;;2.07;;
4595;SDS011;2310;49.978;8.742;2023-07-13T19:20:54;3.43;;;1.97;;
4595;SDS011;2310;49.978;8.742;2023-07-13T19:25:00;5.33;;;2.40;;
4595;SDS011;2310;49.978;8.742;2023-07-13T19:29:01;5.03;;;1.90;;
4595;SDS011;2310;49.978;8.742;2023-07-13T19:33:05;4.37;;;2.00;;
4595;SDS011;2310;49.978;8.742;2023-07-13T19:37:14;8.83;;;3.43;;
4595;SDS011;2310;49.978;8.742;2023-07-13T19:41:16;4.00;;;2.00;;
4595;SDS011;2310;49.978;8.742;2023-07-13T19:45:21;5.93;;;2.53;;
4595;SDS011;2310;49.978;8.742;2023-07-13T19:49:23;4.10;;;2.03;;
4595;SDS011;2310;49.978;8.742;2023-07-13T19:53:25;5.10;;;2.10;;
4595;SDS011;2310;49.978;8.742;2023-07-13T19:57:29;3.57;;;2.00;;
4595;SDS011;2310;49.978;8.742;2023-07-13T20:01:30;3.70;;;1.90;;
4595;SDS011;2310;49.978;8.742;2023-07-13T20:05:33;4.20;;;2.23;;
4595;SDS011;2310;49.978;8.742;2023-07-13T20:09:37;3.83;;;2.30;;
4595;SDS011;2310;49.978;8.742;2023-07-13T20:13:41;4.43;;;2.00;;
4595;SDS011;2310;49.978;8.742;2023-07-13T20:17:42;3.80;;;2.07;;
4595;SDS011;2310;49.978;8.742;2023-07-13T20:21:47;4.00;;;2.60;;
4595;SDS011;2310;49.978;8.742;2023-07-13T20:25:48;4.40;;;2.10;;
4595;SDS011;2310;49.978;8.742;2023-07-13T20:29:50;4.53;;;2.40;;
4595;SDS011;2310;49.978;8.742;2023-07-13T20:33:52;4.50;;;2.40;;
4595;SDS011;2310;49.978;8.742;2023-07-13T20:37:55;6.00;;;2.70;;
4595;SDS011;2310;49.978;8.742;2023-07-13T20:41:57;4.00;;;2.00;;
4595;SDS011;2310;49.978;8.742;2023-07-13T20:45:59;3.27;;;2.00;;
4595;SDS011;2310;49.978;8.742;2023-07-13T20:50:03;4.70;;;2.23;;
4595;SDS011;2310;49.978;8.742;2023-07-13T20:54:13;4.23;;;2.50;;
4595;SDS011;2310;49.978;8.742;2023-07-13T20:58:15;3.43;;;2.17;;
4595;SDS011;2310;49.978;8.742;2023-07-13T21:06:26;6.17;;;2.60;;
4595;SDS011;2310;49.978;8.742;2023-07-13T21:10:30;5.27;;;2.30;;
4595;SDS011;2310;49.978;8.742;2023-07-13T21:14:34;4.47;;;2.07;;
4595;SDS011;2310;49.978;8.742;2023-07-13T21:18:36;7.67;;;2.43;;
4595;SDS011;2310;49.978;8.742;2023-07-13T21:22:38;4.20;;;1.93;;
4595;SDS011;2310;49.978;8.742;2023-07-13T21:26:39;3.97;;;2.50;;
4595;SDS011;2310;49.978;8.742;2023-07-13T21:30:41;5.00;;;2.80;;
4595;SDS011;2310;49.978;8.742;2023-07-13T21:34:44;7.70;;;2.63;;
4595;SDS011;2310;49.978;8.742;2023-07-13T21:38:46;4.73;;;2.50;;
4595;SDS011;2310;49.978;8.742;2023-07-13T21:42:51;4.13;;;2.53;;
4595;SDS011;2310;49.978;8.742;2023-07-13T21:46:52;4.77;;;2.80;;
4595;SDS011;2310;49.978;8.742;2023-07-13T21:50:55;5.47;;;2.70;;
4595;SDS011;2310;49.978;8.742;2023-07-13T21:54:57;5.10;;;2.53;;
4595;SDS011;2310;49.978;8.742;2023-07-13T21:58:58;8.33;;;2.37;;
4595;SDS011;2310;49.978;8.742;2023-07-13T22:03:00;4.93;;;2.27;;
4595;SDS011;2310;49.978;8.742;2023-07-13T22:07:01;4.97;;;2.50;;
4595;SDS011;2310;49.978;8.742;2023-07-13T22:11:15;5.70;;;2.80;;
4595;SDS011;2310;49.978;8.742;2023-07-13T22:15:19;7.10;;;3.07;;
4595;SDS011;2310;49.978;8.742;2023-07-13T22:19:20;4.57;;;2.97;;
4595;SDS011;2310;49.978;8.742;2023-07-13T22:23:24;5.50;;;2.80;;
4595;SDS011;2310;49.978;8.742;2023-07-13T22:27:27;5.43;;;2.90;;
4595;SDS011;2310;49.978;8.742;2023-07-13T22:31:30;4.60;;;2.53;;
4595;SDS011;2310;49.978;8.742;2023-07-13T22:35:31;5.43;;;3.13;;
4595;SDS011;2310;49.978;8.742;2023-07-13T22:39:33;5.17;;;2.80;;
4595;SDS011;2310;49.978;8.742;2023-07-13T22:43:34;4.47;;;2.80;;
4595;SDS011;2310;49.978;8.742;2023-07-13T22:47:40;4.50;;;2.77;;
4595;SDS011;2310;49.978;8.742;2023-07-13T22:51:40;5.23;;;3.37;;
4595;SDS011;2310;49.978;8.742;2023-07-13T22:55:43;5.40;;;2.83;;
4595;SDS011;2310;49.978;8.742;2023-07-13T22:59:44;5.23;;;2.90;;
4595;SDS011;2310;49.978;8.742;2023-07-13T23:03:46;6.00;;;3.20;;
4595;SDS011;2310;49.978;8.742;2023-07-13T23:07:48;4.90;;;2.70;;
4595;SDS011;2310;49.978;8.742;2023-07-13T23:11:49;5.00;;;2.73;;
4595;SDS011;2310;49.978;8.742;2023-07-13T23:15:51;4.80;;;3.30;;
4595;SDS011;2310;49.978;8.742;2023-07-13T23:19:53;5.10;;;2.60;;
4595;SDS011;2310;49.978;8.742;2023-07-13T23:23:54;5.60;;;3.20;;
4595;SDS011;2310;49.978;8.742;2023-07-13T23:27:56;4.83;;;3.00;;
4595;SDS011;2310;49.978;8.742;2023-07-13T23:31:59;6.60;;;2.70;;
4595;SDS011;2310;49.978;8.742;2023-07-13T23:36:01;6.50;;;2.90;;
4595;SDS011;2310;49.978;8.742;2023-07-13T23:40:16;5.30;;;2.77;;
4595;SDS011;2310;49.978;8.742;2023-07-13T23:44:20;6.00;;;3.17;;
4595;SDS011;2310;49.978;8.742;2023-07-13T23:48:21;5.27;;;3.20;;
4595;SDS011;2310;49.978;8.742;2023-07-13T23:52:22;4.63;;;2.67;;
4595;SDS011;2310;49.978;8.742;2023-07-13T23:56:24;6.20;;;2.77;;
